Williamson, West Virginia
Current Conditions -  °F | °C
As of 1:15 AM on Saturday 29 Nov 2014 (Local Time) from KPBX Reporting Station
Clear Clear  
Wind Chill: 30°   Ceiling: Unl
Heat Index: 35°   Visibility: 10mi
Dew Point: 17°   Wind: 6mph
Humidity: 49%   Direction: 140°SE
Pressure: 30.12"   Gusts: NA
Location:  37.67°N, 82.28°W
Report Text: KPBX 290615Z AUTO 14005KT 10SM CLR 02/M08 A3012 RMK AO2 T00151082
Loading
Personal Weather Stations






























Interactive Weather Map New forecast layout! Learn more

10-Day Weather Forecast

Advertisements
Track Severe Weather on mobile